sensor_id;sensor_type;location;lat;lon;timestamp;P1;durP1;ratioP1;P2;durP2;ratioP2
73264;SDS011;61493;51.008;14.088;2022-11-21T00:03:05;35.45;;;14.60;;
73264;SDS011;61493;51.008;14.088;2022-11-21T00:05:31;31.77;;;14.23;;
73264;SDS011;61493;51.008;14.088;2022-11-21T00:07:57;35.63;;;15.40;;
73264;SDS011;61493;51.008;14.088;2022-11-21T00:10:23;38.97;;;16.50;;
73264;SDS011;61493;51.008;14.088;2022-11-21T00:12:53;42.73;;;15.80;;
73264;SDS011;61493;51.008;14.088;2022-11-21T00:15:19;40.93;;;15.67;;
73264;SDS011;61493;51.008;14.088;2022-11-21T00:17:45;41.50;;;16.10;;
73264;SDS011;61493;51.008;14.088;2022-11-21T00:20:11;41.27;;;19.60;;
73264;SDS011;61493;51.008;14.088;2022-11-21T00:22:36;40.10;;;16.80;;
73264;SDS011;61493;51.008;14.088;2022-11-21T00:25:04;35.60;;;13.40;;
73264;SDS011;61493;51.008;14.088;2022-11-21T00:27:29;46.50;;;19.73;;
73264;SDS011;61493;51.008;14.088;2022-11-21T00:29:55;40.43;;;18.20;;
73264;SDS011;61493;51.008;14.088;2022-11-21T00:32:26;35.70;;;17.50;;
73264;SDS011;61493;51.008;14.088;2022-11-21T00:34:51;35.70;;;17.63;;
73264;SDS011;61493;51.008;14.088;2022-11-21T01:16:05;38.07;;;18.33;;
73264;SDS011;61493;51.008;14.088;2022-11-21T01:18:33;37.57;;;17.07;;
73264;SDS011;61493;51.008;14.088;2022-11-21T01:20:59;37.47;;;16.77;;
73264;SDS011;61493;51.008;14.088;2022-11-21T01:23:29;37.53;;;18.23;;
73264;SDS011;61493;51.008;14.088;2022-11-21T01:25:59;33.07;;;12.73;;
73264;SDS011;61493;51.008;14.088;2022-11-21T01:28:25;41.40;;;17.70;;
73264;SDS011;61493;51.008;14.088;2022-11-21T01:30:50;27.27;;;14.47;;
73264;SDS011;61493;51.008;14.088;2022-11-21T01:33:16;31.53;;;15.67;;
73264;SDS011;61493;51.008;14.088;2022-11-21T01:35:41;46.37;;;21.90;;
73264;SDS011;61493;51.008;14.088;2022-11-21T01:38:06;40.97;;;17.97;;
73264;SDS011;61493;51.008;14.088;2022-11-21T01:40:36;45.13;;;17.70;;
73264;SDS011;61493;51.008;14.088;2022-11-21T01:43:05;46.23;;;18.53;;
73264;SDS011;61493;51.008;14.088;2022-11-21T01:48:44;39.93;;;18.47;;
73264;SDS011;61493;51.008;14.088;2022-11-21T01:51:33;41.43;;;20.07;;
73264;SDS011;61493;51.008;14.088;2022-11-21T01:57:04;30.40;;;15.27;;
73264;SDS011;61493;51.008;14.088;2022-11-21T01:59:45;35.77;;;17.90;;
73264;SDS011;61493;51.008;14.088;2022-11-21T02:02:16;38.80;;;16.73;;
73264;SDS011;61493;51.008;14.088;2022-11-21T02:04:44;41.53;;;17.37;;
73264;SDS011;61493;51.008;14.088;2022-11-21T02:07:11;48.43;;;20.90;;
73264;SDS011;61493;51.008;14.088;2022-11-21T02:09:42;42.00;;;18.07;;
73264;SDS011;61493;51.008;14.088;2022-11-21T02:12:15;36.30;;;17.80;;
73264;SDS011;61493;51.008;14.088;2022-11-21T02:14:45;35.80;;;16.53;;
73264;SDS011;61493;51.008;14.088;2022-11-21T02:17:11;39.20;;;18.30;;
73264;SDS011;61493;51.008;14.088;2022-11-21T02:19:53;60.40;;;24.70;;
73264;SDS011;61493;51.008;14.088;2022-11-21T02:25:11;42.00;;;16.87;;
73264;SDS011;61493;51.008;14.088;2022-11-21T02:27:42;47.03;;;20.13;;
73264;SDS011;61493;51.008;14.088;2022-11-21T02:30:16;46.90;;;19.53;;
73264;SDS011;61493;51.008;14.088;2022-11-21T02:33:00;53.83;;;20.73;;
73264;SDS011;61493;51.008;14.088;2022-11-21T02:35:25;42.13;;;19.25;;
73264;SDS011;61493;51.008;14.088;2022-11-21T02:37:55;38.73;;;15.20;;
73264;SDS011;61493;51.008;14.088;2022-11-21T02:40:43;48.95;;;19.80;;
73264;SDS011;61493;51.008;14.088;2022-11-21T02:43:35;44.03;;;19.67;;
73264;SDS011;61493;51.008;14.088;2022-11-21T02:46:06;43.80;;;18.90;;
73264;SDS011;61493;51.008;14.088;2022-11-21T02:48:31;46.33;;;18.30;;
73264;SDS011;61493;51.008;14.088;2022-11-21T02:50:56;47.07;;;22.37;;
73264;SDS011;61493;51.008;14.088;2022-11-21T02:53:22;49.97;;;18.63;;
73264;SDS011;61493;51.008;14.088;2022-11-21T02:55:47;52.33;;;19.07;;
73264;SDS011;61493;51.008;14.088;2022-11-21T02:58:13;45.60;;;18.23;;
73264;SDS011;61493;51.008;14.088;2022-11-21T03:00:39;44.03;;;18.80;;
73264;SDS011;61493;51.008;14.088;2022-11-21T03:03:05;48.00;;;18.13;;
73264;SDS011;61493;51.008;14.088;2022-11-21T03:05:31;39.13;;;20.00;;
73264;SDS011;61493;51.008;14.088;2022-11-21T03:07:57;40.67;;;18.10;;
73264;SDS011;61493;51.008;14.088;2022-11-21T03:10:22;39.63;;;16.90;;
73264;SDS011;61493;51.008;14.088;2022-11-21T03:12:48;36.50;;;16.93;;
73264;SDS011;61493;51.008;14.088;2022-11-21T03:15:14;35.33;;;16.23;;
73264;SDS011;61493;51.008;14.088;2022-11-21T03:17:40;43.30;;;19.47;;
73264;SDS011;61493;51.008;14.088;2022-11-21T03:20:06;50.60;;;21.13;;
73264;SDS011;61493;51.008;14.088;2022-11-21T03:22:32;46.43;;;19.10;;
73264;SDS011;61493;51.008;14.088;2022-11-21T03:24:58;37.17;;;16.73;;
73264;SDS011;61493;51.008;14.088;2022-11-21T03:27:24;49.10;;;20.07;;
73264;SDS011;61493;51.008;14.088;2022-11-21T03:29:49;37.23;;;16.23;;
73264;SDS011;61493;51.008;14.088;2022-11-21T03:32:15;32.83;;;16.27;;
73264;SDS011;61493;51.008;14.088;2022-11-21T03:34:40;34.13;;;16.37;;
73264;SDS011;61493;51.008;14.088;2022-11-21T03:37:06;35.77;;;16.33;;
73264;SDS011;61493;51.008;14.088;2022-11-21T03:39:31;29.93;;;13.30;;
73264;SDS011;61493;51.008;14.088;2022-11-21T03:41:57;40.57;;;17.23;;
73264;SDS011;61493;51.008;14.088;2022-11-21T03:44:22;34.47;;;14.77;;
73264;SDS011;61493;51.008;14.088;2022-11-21T03:46:48;28.73;;;13.93;;
73264;SDS011;61493;51.008;14.088;2022-11-21T03:49:14;31.40;;;14.17;;
73264;SDS011;61493;51.008;14.088;2022-11-21T03:51:40;23.63;;;11.87;;
73264;SDS011;61493;51.008;14.088;2022-11-21T03:54:07;29.53;;;13.03;;
73264;SDS011;61493;51.008;14.088;2022-11-21T03:56:32;33.10;;;15.40;;
73264;SDS011;61493;51.008;14.088;2022-11-21T03:58:58;27.03;;;12.60;;
73264;SDS011;61493;51.008;14.088;2022-11-21T04:01:23;29.07;;;9.90;;
73264;SDS011;61493;51.008;14.088;2022-11-21T04:03:49;21.57;;;12.17;;
73264;SDS011;61493;51.008;14.088;2022-11-21T04:06:16;27.33;;;12.73;;
73264;SDS011;61493;51.008;14.088;2022-11-21T04:08:43;24.87;;;11.87;;
73264;SDS011;61493;51.008;14.088;2022-11-21T04:11:09;28.17;;;13.27;;
73264;SDS011;61493;51.008;14.088;2022-11-21T04:13:35;26.77;;;10.73;;
73264;SDS011;61493;51.008;14.088;2022-11-21T04:16:01;26.00;;;11.63;;
73264;SDS011;61493;51.008;14.088;2022-11-21T04:18:26;27.30;;;12.50;;
73264;SDS011;61493;51.008;14.088;2022-11-21T04:20:58;26.80;;;13.60;;
73264;SDS011;61493;51.008;14.088;2022-11-21T04:23:25;29.17;;;13.18;;
73264;SDS011;61493;51.008;14.088;2022-11-21T04:25:51;28.40;;;13.67;;
73264;SDS011;61493;51.008;14.088;2022-11-21T04:28:16;27.60;;;15.47;;
73264;SDS011;61493;51.008;14.088;2022-11-21T04:30:42;31.03;;;14.53;;
73264;SDS011;61493;51.008;14.088;2022-11-21T04:33:07;27.30;;;13.37;;
73264;SDS011;61493;51.008;14.088;2022-11-21T04:35:32;19.10;;;10.40;;
73264;SDS011;61493;51.008;14.088;2022-11-21T04:37:58;29.23;;;13.13;;
73264;SDS011;61493;51.008;14.088;2022-11-21T04:40:23;26.33;;;12.83;;
73264;SDS011;61493;51.008;14.088;2022-11-21T04:42:49;28.50;;;12.67;;
73264;SDS011;61493;51.008;14.088;2022-11-21T04:45:14;26.13;;;12.40;;
73264;SDS011;61493;51.008;14.088;2022-11-21T04:47:41;22.60;;;11.77;;
73264;SDS011;61493;51.008;14.088;2022-11-21T04:50:09;22.53;;;10.67;;
73264;SDS011;61493;51.008;14.088;2022-11-21T04:52:36;21.07;;;10.40;;
73264;SDS011;61493;51.008;14.088;2022-11-21T04:55:02;16.90;;;9.40;;
73264;SDS011;61493;51.008;14.088;2022-11-21T04:57:28;22.10;;;9.73;;
73264;SDS011;61493;51.008;14.088;2022-11-21T04:59:54;19.10;;;9.03;;
73264;SDS011;61493;51.008;14.088;2022-11-21T05:02:19;16.80;;;8.20;;
73264;SDS011;61493;51.008;14.088;2022-11-21T05:04:45;14.87;;;8.07;;
73264;SDS011;61493;51.008;14.088;2022-11-21T05:07:10;18.77;;;8.70;;
73264;SDS011;61493;51.008;14.088;2022-11-21T05:09:36;16.70;;;8.10;;
73264;SDS011;61493;51.008;14.088;2022-11-21T05:12:01;19.27;;;8.00;;
73264;SDS011;61493;51.008;14.088;2022-11-21T05:14:45;20.27;;;9.00;;
73264;SDS011;61493;51.008;14.088;2022-11-21T05:17:11;16.17;;;7.80;;
73264;SDS011;61493;51.008;14.088;2022-11-21T05:19:36;15.60;;;8.57;;
73264;SDS011;61493;51.008;14.088;2022-11-21T05:22:02;19.90;;;8.87;;
73264;SDS011;61493;51.008;14.088;2022-11-21T05:24:27;14.97;;;7.10;;
73264;SDS011;61493;51.008;14.088;2022-11-21T05:26:53;16.80;;;8.93;;
73264;SDS011;61493;51.008;14.088;2022-11-21T05:29:18;17.20;;;8.10;;
73264;SDS011;61493;51.008;14.088;2022-11-21T05:31:44;13.53;;;7.43;;
73264;SDS011;61493;51.008;14.088;2022-11-21T05:34:09;15.30;;;8.07;;
73264;SDS011;61493;51.008;14.088;2022-11-21T05:36:34;21.53;;;10.27;;
73264;SDS011;61493;51.008;14.088;2022-11-21T05:39:03;21.33;;;11.20;;
73264;SDS011;61493;51.008;14.088;2022-11-21T05:41:28;25.77;;;11.93;;
73264;SDS011;61493;51.008;14.088;2022-11-21T05:43:53;23.70;;;10.93;;
73264;SDS011;61493;51.008;14.088;2022-11-21T05:46:20;21.93;;;11.80;;
73264;SDS011;61493;51.008;14.088;2022-11-21T05:48:47;23.27;;;11.60;;
73264;SDS011;61493;51.008;14.088;2022-11-21T05:51:14;22.27;;;10.40;;
73264;SDS011;61493;51.008;14.088;2022-11-21T05:53:40;23.47;;;12.47;;
73264;SDS011;61493;51.008;14.088;2022-11-21T05:56:06;24.47;;;12.43;;
73264;SDS011;61493;51.008;14.088;2022-11-21T05:58:39;17.03;;;9.50;;
73264;SDS011;61493;51.008;14.088;2022-11-21T06:01:05;19.77;;;11.10;;
73264;SDS011;61493;51.008;14.088;2022-11-21T06:03:36;26.47;;;12.93;;
73264;SDS011;61493;51.008;14.088;2022-11-21T06:08:31;20.10;;;10.87;;
73264;SDS011;61493;51.008;14.088;2022-11-21T06:11:01;22.23;;;11.17;;
73264;SDS011;61493;51.008;14.088;2022-11-21T06:13:28;21.73;;;10.17;;
73264;SDS011;61493;51.008;14.088;2022-11-21T06:15:57;20.83;;;9.87;;
73264;SDS011;61493;51.008;14.088;2022-11-21T06:18:24;17.50;;;9.60;;
73264;SDS011;61493;51.008;14.088;2022-11-21T06:20:51;24.37;;;14.00;;
73264;SDS011;61493;51.008;14.088;2022-11-21T06:23:16;23.40;;;14.80;;
73264;SDS011;61493;51.008;14.088;2022-11-21T06:25:43;22.07;;;11.90;;
73264;SDS011;61493;51.008;14.088;2022-11-21T06:28:09;18.20;;;9.50;;
73264;SDS011;61493;51.008;14.088;2022-11-21T06:30:35;17.77;;;9.37;;
73264;SDS011;61493;51.008;14.088;2022-11-21T06:33:02;17.17;;;9.47;;
73264;SDS011;61493;51.008;14.088;2022-11-21T06:35:28;16.87;;;8.63;;
73264;SDS011;61493;51.008;14.088;2022-11-21T06:37:54;17.37;;;9.67;;
73264;SDS011;61493;51.008;14.088;2022-11-21T06:40:20;14.17;;;7.63;;
73264;SDS011;61493;51.008;14.088;2022-11-21T06:42:45;19.63;;;9.23;;
73264;SDS011;61493;51.008;14.088;2022-11-21T06:45:11;19.57;;;8.53;;
73264;SDS011;61493;51.008;14.088;2022-11-21T06:47:36;18.40;;;8.10;;
73264;SDS011;61493;51.008;14.088;2022-11-21T06:50:01;15.80;;;8.57;;
73264;SDS011;61493;51.008;14.088;2022-11-21T06:52:27;15.93;;;7.60;;
73264;SDS011;61493;51.008;14.088;2022-11-21T06:54:52;14.63;;;8.70;;
73264;SDS011;61493;51.008;14.088;2022-11-21T06:57:17;15.13;;;7.70;;
73264;SDS011;61493;51.008;14.088;2022-11-21T06:59:43;16.13;;;7.93;;
73264;SDS011;61493;51.008;14.088;2022-11-21T07:02:11;13.20;;;7.63;;
73264;SDS011;61493;51.008;14.088;2022-11-21T07:04:37;11.73;;;6.67;;
73264;SDS011;61493;51.008;14.088;2022-11-21T07:07:02;16.40;;;7.23;;
73264;SDS011;61493;51.008;14.088;2022-11-21T07:09:27;14.17;;;7.00;;
73264;SDS011;61493;51.008;14.088;2022-11-21T07:11:53;12.67;;;5.57;;
73264;SDS011;61493;51.008;14.088;2022-11-21T07:14:18;11.40;;;5.27;;
73264;SDS011;61493;51.008;14.088;2022-11-21T07:16:44;8.87;;;4.60;;
73264;SDS011;61493;51.008;14.088;2022-11-21T07:19:09;8.33;;;4.37;;
73264;SDS011;61493;51.008;14.088;2022-11-21T07:21:34;7.33;;;4.27;;
73264;SDS011;61493;51.008;14.088;2022-11-21T07:23:59;8.73;;;3.90;;
73264;SDS011;61493;51.008;14.088;2022-11-21T07:26:25;7.77;;;3.97;;
73264;SDS011;61493;51.008;14.088;2022-11-21T07:28:50;8.10;;;4.00;;
73264;SDS011;61493;51.008;14.088;2022-11-21T07:31:16;6.70;;;2.77;;
73264;SDS011;61493;51.008;14.088;2022-11-21T07:33:47;5.67;;;3.17;;
73264;SDS011;61493;51.008;14.088;2022-11-21T07:36:13;7.13;;;3.63;;
73264;SDS011;61493;51.008;14.088;2022-11-21T07:38:39;4.70;;;2.67;;
73264;SDS011;61493;51.008;14.088;2022-11-21T07:41:05;5.73;;;3.77;;
73264;SDS011;61493;51.008;14.088;2022-11-21T07:43:30;5.97;;;3.50;;
73264;SDS011;61493;51.008;14.088;2022-11-21T07:45:55;6.30;;;3.27;;
73264;SDS011;61493;51.008;14.088;2022-11-21T07:48:21;6.90;;;3.60;;
73264;SDS011;61493;51.008;14.088;2022-11-21T07:50:46;5.40;;;3.07;;
73264;SDS011;61493;51.008;14.088;2022-11-21T07:53:11;5.93;;;3.03;;
73264;SDS011;61493;51.008;14.088;2022-11-21T07:55:37;6.07;;;3.90;;
73264;SDS011;61493;51.008;14.088;2022-11-21T07:58:04;7.03;;;3.77;;
73264;SDS011;61493;51.008;14.088;2022-11-21T08:00:32;8.13;;;4.40;;
73264;SDS011;61493;51.008;14.088;2022-11-21T08:02:59;5.40;;;4.27;;
73264;SDS011;61493;51.008;14.088;2022-11-21T08:05:24;8.40;;;4.53;;
73264;SDS011;61493;51.008;14.088;2022-11-21T08:07:50;10.00;;;4.87;;
73264;SDS011;61493;51.008;14.088;2022-11-21T08:10:16;11.10;;;5.47;;
73264;SDS011;61493;51.008;14.088;2022-11-21T08:12:45;12.63;;;5.70;;
73264;SDS011;61493;51.008;14.088;2022-11-21T08:15:11;10.43;;;5.17;;
73264;SDS011;61493;51.008;14.088;2022-11-21T08:17:37;10.30;;;5.47;;
73264;SDS011;61493;51.008;14.088;2022-11-21T08:20:03;9.23;;;5.47;;
73264;SDS011;61493;51.008;14.088;2022-11-21T08:22:30;12.17;;;6.63;;
73264;SDS011;61493;51.008;14.088;2022-11-21T08:24:55;12.30;;;5.97;;
73264;SDS011;61493;51.008;14.088;2022-11-21T08:27:20;10.43;;;6.47;;
73264;SDS011;61493;51.008;14.088;2022-11-21T08:29:47;10.13;;;6.47;;
73264;SDS011;61493;51.008;14.088;2022-11-21T08:32:12;12.57;;;6.90;;
73264;SDS011;61493;51.008;14.088;2022-11-21T08:34:38;13.83;;;7.37;;
73264;SDS011;61493;51.008;14.088;2022-11-21T08:37:03;15.37;;;7.57;;
73264;SDS011;61493;51.008;14.088;2022-11-21T08:42:23;17.02;;;8.48;;
73264;SDS011;61493;51.008;14.088;2022-11-21T08:44:48;18.23;;;8.70;;
73264;SDS011;61493;51.008;14.088;2022-11-21T08:47:14;17.83;;;9.90;;
73264;SDS011;61493;51.008;14.088;2022-11-21T08:49:39;22.33;;;10.77;;
73264;SDS011;61493;51.008;14.088;2022-11-21T08:52:04;22.57;;;9.33;;
73264;SDS011;61493;51.008;14.088;2022-11-21T08:54:30;21.43;;;9.33;;
73264;SDS011;61493;51.008;14.088;2022-11-21T08:56:56;17.23;;;9.87;;
73264;SDS011;61493;51.008;14.088;2022-11-21T08:59:21;15.07;;;8.10;;
73264;SDS011;61493;51.008;14.088;2022-11-21T09:01:46;12.93;;;6.77;;
73264;SDS011;61493;51.008;14.088;2022-11-21T09:04:12;16.10;;;7.37;;
73264;SDS011;61493;51.008;14.088;2022-11-21T09:06:37;17.50;;;8.47;;
73264;SDS011;61493;51.008;14.088;2022-11-21T09:09:04;18.23;;;9.30;;
73264;SDS011;61493;51.008;14.088;2022-11-21T09:11:30;16.43;;;8.03;;
73264;SDS011;61493;51.008;14.088;2022-11-21T09:13:55;13.47;;;7.37;;
73264;SDS011;61493;51.008;14.088;2022-11-21T09:16:41;16.33;;;7.73;;
73264;SDS011;61493;51.008;14.088;2022-11-21T09:19:25;13.33;;;7.57;;
73264;SDS011;61493;51.008;14.088;2022-11-21T09:21:51;15.17;;;7.27;;
73264;SDS011;61493;51.008;14.088;2022-11-21T09:24:17;15.27;;;8.33;;
73264;SDS011;61493;51.008;14.088;2022-11-21T09:26:43;16.80;;;7.23;;
73264;SDS011;61493;51.008;14.088;2022-11-21T09:29:08;11.33;;;6.27;;
73264;SDS011;61493;51.008;14.088;2022-11-21T09:31:42;13.33;;;6.53;;
73264;SDS011;61493;51.008;14.088;2022-11-21T09:34:08;14.17;;;6.20;;
73264;SDS011;61493;51.008;14.088;2022-11-21T09:36:34;13.60;;;6.63;;
73264;SDS011;61493;51.008;14.088;2022-11-21T09:39:00;11.87;;;6.63;;
73264;SDS011;61493;51.008;14.088;2022-11-21T09:47:01;12.40;;;6.90;;
73264;SDS011;61493;51.008;14.088;2022-11-21T09:49:31;14.33;;;6.40;;
73264;SDS011;61493;51.008;14.088;2022-11-21T09:52:06;12.50;;;6.37;;
73264;SDS011;61493;51.008;14.088;2022-11-21T09:54:34;13.43;;;7.27;;
73264;SDS011;61493;51.008;14.088;2022-11-21T09:59:35;17.60;;;8.63;;
73264;SDS011;61493;51.008;14.088;2022-11-21T10:02:10;17.30;;;8.93;;
73264;SDS011;61493;51.008;14.088;2022-11-21T10:04:40;17.07;;;8.47;;
73264;SDS011;61493;51.008;14.088;2022-11-21T10:07:06;19.13;;;8.90;;
73264;SDS011;61493;51.008;14.088;2022-11-21T10:26:13;22.60;;;10.33;;
73264;SDS011;61493;51.008;14.088;2022-11-21T10:28:48;19.83;;;10.20;;
73264;SDS011;61493;51.008;14.088;2022-11-21T10:31:16;19.37;;;9.00;;
73264;SDS011;61493;51.008;14.088;2022-11-21T10:33:41;16.37;;;9.07;;
73264;SDS011;61493;51.008;14.088;2022-11-21T10:36:12;20.50;;;10.33;;
73264;SDS011;61493;51.008;14.088;2022-11-21T10:38:45;24.07;;;9.30;;
73264;SDS011;61493;51.008;14.088;2022-11-21T10:41:16;18.30;;;9.03;;
73264;SDS011;61493;51.008;14.088;2022-11-21T10:44:02;27.17;;;10.60;;
73264;SDS011;61493;51.008;14.088;2022-11-21T10:46:56;18.57;;;8.63;;
73264;SDS011;61493;51.008;14.088;2022-11-21T10:49:26;26.40;;;11.20;;
73264;SDS011;61493;51.008;14.088;2022-11-21T10:51:59;16.70;;;8.03;;
73264;SDS011;61493;51.008;14.088;2022-11-21T10:54:28;18.57;;;8.00;;
73264;SDS011;61493;51.008;14.088;2022-11-21T10:57:18;22.50;;;9.07;;
73264;SDS011;61493;51.008;14.088;2022-11-21T11:00:12;20.23;;;9.33;;
73264;SDS011;61493;51.008;14.088;2022-11-21T11:02:42;18.97;;;8.47;;
73264;SDS011;61493;51.008;14.088;2022-11-21T11:05:29;17.97;;;8.20;;
73264;SDS011;61493;51.008;14.088;2022-11-21T11:10:39;22.30;;;10.10;;
73264;SDS011;61493;51.008;14.088;2022-11-21T11:13:25;21.23;;;9.83;;
73264;SDS011;61493;51.008;14.088;2022-11-21T11:20:52;19.63;;;9.63;;
73264;SDS011;61493;51.008;14.088;2022-11-21T11:23:46;21.58;;;9.48;;
73264;SDS011;61493;51.008;14.088;2022-11-21T11:28:52;32.77;;;9.90;;
73264;SDS011;61493;51.008;14.088;2022-11-21T11:31:18;25.50;;;10.00;;
73264;SDS011;61493;51.008;14.088;2022-11-21T11:33:50;34.73;;;12.17;;
73264;SDS011;61493;51.008;14.088;2022-11-21T11:39:11;26.00;;;12.20;;
73264;SDS011;61493;51.008;14.088;2022-11-21T11:47:42;28.53;;;11.50;;
73264;SDS011;61493;51.008;14.088;2022-11-21T11:58:48;26.00;;;11.57;;
73264;SDS011;61493;51.008;14.088;2022-11-21T12:01:30;33.83;;;14.30;;
73264;SDS011;61493;51.008;14.088;2022-11-21T12:06:50;27.17;;;11.57;;
73264;SDS011;61493;51.008;14.088;2022-11-21T12:09:21;29.87;;;10.90;;
73264;SDS011;61493;51.008;14.088;2022-11-21T12:12:04;20.80;;;9.13;;
73264;SDS011;61493;51.008;14.088;2022-11-21T12:20:33;20.93;;;8.90;;
73264;SDS011;61493;51.008;14.088;2022-11-21T12:23:03;25.88;;;11.18;;
73264;SDS011;61493;51.008;14.088;2022-11-21T12:25:32;21.87;;;10.47;;
73264;SDS011;61493;51.008;14.088;2022-11-21T12:28:06;27.67;;;11.73;;
73264;SDS011;61493;51.008;14.088;2022-11-21T12:33:57;22.33;;;9.63;;
73264;SDS011;61493;51.008;14.088;2022-11-21T12:36:43;25.97;;;11.03;;
73264;SDS011;61493;51.008;14.088;2022-11-21T12:45:02;21.77;;;10.10;;
73264;SDS011;61493;51.008;14.088;2022-11-21T12:51:16;20.00;;;10.17;;
73264;SDS011;61493;51.008;14.088;2022-11-21T13:05:44;20.83;;;9.03;;
73264;SDS011;61493;51.008;14.088;2022-11-21T13:08:14;20.47;;;10.77;;
73264;SDS011;61493;51.008;14.088;2022-11-21T13:10:51;19.03;;;8.93;;
73264;SDS011;61493;51.008;14.088;2022-11-21T13:13:44;19.00;;;9.77;;
73264;SDS011;61493;51.008;14.088;2022-11-21T13:16:15;19.63;;;8.57;;
73264;SDS011;61493;51.008;14.088;2022-11-21T13:19:00;18.23;;;9.37;;
73264;SDS011;61493;51.008;14.088;2022-11-21T13:21:45;22.97;;;8.80;;
73264;SDS011;61493;51.008;14.088;2022-11-21T13:24:53;17.67;;;9.13;;
73264;SDS011;61493;51.008;14.088;2022-11-21T13:27:10;18.17;;;9.43;;
73264;SDS011;61493;51.008;14.088;2022-11-21T13:32:38;18.00;;;9.13;;
73264;SDS011;61493;51.008;14.088;2022-11-21T13:50:51;14.17;;;7.00;;
73264;SDS011;61493;51.008;14.088;2022-11-21T13:53:31;14.70;;;6.87;;
73264;SDS011;61493;51.008;14.088;2022-11-21T14:05:18;42.13;;;18.47;;
73264;SDS011;61493;51.008;14.088;2022-11-21T14:07:51;21.83;;;11.67;;
73264;SDS011;61493;51.008;14.088;2022-11-21T14:10:29;20.57;;;9.70;;
73264;SDS011;61493;51.008;14.088;2022-11-21T14:12:57;25.50;;;10.90;;
73264;SDS011;61493;51.008;14.088;2022-11-21T14:15:27;16.13;;;8.30;;
73264;SDS011;61493;51.008;14.088;2022-11-21T14:18:02;18.33;;;8.07;;
73264;SDS011;61493;51.008;14.088;2022-11-21T14:20:29;20.87;;;10.47;;
73264;SDS011;61493;51.008;14.088;2022-11-21T14:23:04;16.47;;;8.43;;
73264;SDS011;61493;51.008;14.088;2022-11-21T14:28:04;21.50;;;9.47;;
73264;SDS011;61493;51.008;14.088;2022-11-21T14:30:37;23.77;;;9.67;;
73264;SDS011;61493;51.008;14.088;2022-11-21T14:33:23;19.13;;;9.40;;
73264;SDS011;61493;51.008;14.088;2022-11-21T14:36:12;19.57;;;8.50;;
73264;SDS011;61493;51.008;14.088;2022-11-21T14:38:46;21.00;;;10.63;;
73264;SDS011;61493;51.008;14.088;2022-11-21T14:43:48;22.83;;;11.87;;
73264;SDS011;61493;51.008;14.088;2022-11-21T14:46:14;18.97;;;9.77;;
73264;SDS011;61493;51.008;14.088;2022-11-21T14:48:40;20.43;;;9.83;;
73264;SDS011;61493;51.008;14.088;2022-11-21T14:51:10;21.53;;;10.00;;
73264;SDS011;61493;51.008;14.088;2022-11-21T14:53:40;16.93;;;8.30;;
73264;SDS011;61493;51.008;14.088;2022-11-21T14:56:26;20.07;;;9.63;;
73264;SDS011;61493;51.008;14.088;2022-11-21T14:58:55;18.17;;;8.57;;
73264;SDS011;61493;51.008;14.088;2022-11-21T15:01:28;19.53;;;9.37;;
73264;SDS011;61493;51.008;14.088;2022-11-21T15:04:05;18.00;;;8.17;;
73264;SDS011;61493;51.008;14.088;2022-11-21T15:06:42;23.47;;;10.20;;
73264;SDS011;61493;51.008;14.088;2022-11-21T15:09:15;26.50;;;12.07;;
73264;SDS011;61493;51.008;14.088;2022-11-21T15:11:42;21.87;;;11.00;;
73264;SDS011;61493;51.008;14.088;2022-11-21T15:14:12;24.87;;;12.73;;
73264;SDS011;61493;51.008;14.088;2022-11-21T15:16:46;25.87;;;11.60;;
73264;SDS011;61493;51.008;14.088;2022-11-21T15:19:20;25.40;;;13.10;;
73264;SDS011;61493;51.008;14.088;2022-11-21T15:21:48;24.63;;;11.27;;
73264;SDS011;61493;51.008;14.088;2022-11-21T15:24:17;44.30;;;19.87;;
73264;SDS011;61493;51.008;14.088;2022-11-21T15:26:52;40.57;;;19.00;;
73264;SDS011;61493;51.008;14.088;2022-11-21T15:29:18;34.20;;;15.47;;
73264;SDS011;61493;51.008;14.088;2022-11-21T15:32:09;35.13;;;15.27;;
73264;SDS011;61493;51.008;14.088;2022-11-21T15:34:36;33.43;;;14.33;;
73264;SDS011;61493;51.008;14.088;2022-11-21T15:37:20;42.57;;;17.17;;
73264;SDS011;61493;51.008;14.088;2022-11-21T15:39:48;38.03;;;15.80;;
73264;SDS011;61493;51.008;14.088;2022-11-21T15:47:38;39.97;;;14.90;;
73264;SDS011;61493;51.008;14.088;2022-11-21T15:50:03;27.87;;;11.13;;
73264;SDS011;61493;51.008;14.088;2022-11-21T15:52:42;21.10;;;9.13;;
73264;SDS011;61493;51.008;14.088;2022-11-21T15:55:24;28.33;;;11.10;;
73264;SDS011;61493;51.008;14.088;2022-11-21T15:57:50;34.50;;;15.47;;
73264;SDS011;61493;51.008;14.088;2022-11-21T16:00:16;29.10;;;10.83;;
73264;SDS011;61493;51.008;14.088;2022-11-21T16:02:41;26.20;;;10.87;;
73264;SDS011;61493;51.008;14.088;2022-11-21T16:05:10;24.80;;;10.50;;
73264;SDS011;61493;51.008;14.088;2022-11-21T16:07:39;27.58;;;13.00;;
73264;SDS011;61493;51.008;14.088;2022-11-21T16:10:05;25.80;;;12.57;;
73264;SDS011;61493;51.008;14.088;2022-11-21T16:12:32;31.27;;;13.17;;
73264;SDS011;61493;51.008;14.088;2022-11-21T16:14:57;31.17;;;14.70;;
73264;SDS011;61493;51.008;14.088;2022-11-21T16:17:22;29.23;;;12.33;;
73264;SDS011;61493;51.008;14.088;2022-11-21T16:19:48;25.53;;;12.63;;
73264;SDS011;61493;51.008;14.088;2022-11-21T16:22:16;23.63;;;11.27;;
73264;SDS011;61493;51.008;14.088;2022-11-21T16:24:41;29.80;;;12.30;;
73264;SDS011;61493;51.008;14.088;2022-11-21T16:27:07;22.27;;;10.60;;
73264;SDS011;61493;51.008;14.088;2022-11-21T16:29:32;26.17;;;11.80;;
73264;SDS011;61493;51.008;14.088;2022-11-21T16:31:57;29.23;;;11.77;;
73264;SDS011;61493;51.008;14.088;2022-11-21T16:34:23;26.17;;;11.13;;
73264;SDS011;61493;51.008;14.088;2022-11-21T16:36:48;24.83;;;10.97;;
73264;SDS011;61493;51.008;14.088;2022-11-21T16:39:13;26.83;;;11.97;;
73264;SDS011;61493;51.008;14.088;2022-11-21T16:41:38;22.63;;;10.63;;
73264;SDS011;61493;51.008;14.088;2022-11-21T16:44:11;25.27;;;10.27;;
73264;SDS011;61493;51.008;14.088;2022-11-21T16:46:40;23.25;;;11.57;;
73264;SDS011;61493;51.008;14.088;2022-11-21T16:49:09;16.33;;;7.33;;
73264;SDS011;61493;51.008;14.088;2022-11-21T16:51:35;19.90;;;8.63;;
73264;SDS011;61493;51.008;14.088;2022-11-21T16:54:00;26.13;;;11.53;;
73264;SDS011;61493;51.008;14.088;2022-11-21T16:56:25;22.27;;;8.33;;
73264;SDS011;61493;51.008;14.088;2022-11-21T16:58:51;28.77;;;11.83;;
73264;SDS011;61493;51.008;14.088;2022-11-21T17:01:21;23.17;;;10.43;;
73264;SDS011;61493;51.008;14.088;2022-11-21T17:03:48;20.90;;;9.03;;
73264;SDS011;61493;51.008;14.088;2022-11-21T17:06:16;30.00;;;16.20;;
73264;SDS011;61493;51.008;14.088;2022-11-21T17:08:43;30.50;;;13.03;;
73264;SDS011;61493;51.008;14.088;2022-11-21T17:11:15;21.17;;;11.10;;
73264;SDS011;61493;51.008;14.088;2022-11-21T17:13:52;23.17;;;10.93;;
73264;SDS011;61493;51.008;14.088;2022-11-21T17:16:19;23.40;;;8.50;;
73264;SDS011;61493;51.008;14.088;2022-11-21T17:18:45;19.03;;;7.47;;
73264;SDS011;61493;51.008;14.088;2022-11-21T17:21:12;19.57;;;9.37;;
73264;SDS011;61493;51.008;14.088;2022-11-21T17:23:41;19.97;;;10.97;;
73264;SDS011;61493;51.008;14.088;2022-11-21T17:26:08;18.77;;;9.50;;